FAKM

Details ICAO FAKM (KIM)
Name Kimberley
Region South Africa
Timezone Africa/Johannesburg (UTC+2.0)
Plans Departing 24
Arriving 35
Stats Elevation 3,950 ft / 1,204 m (AMSL)
Location -28.804751° 24.763997°
Runways 2
Magnetic Variation 21.504° W
Sunrise 2018-05-21 05:01:24 UTC / 2018-05-21 07:01:24 Local
Sunset 2018-05-21 15:36:30 UTC / 2018-05-21 17:36:30 Local
Advertisement - Login to hide

Runways

ID Width Length Bearing (true) Bearing (mag) Surface Threshold Offset Overrun Length
02 150 ft / 46 m 9,851 ft / 3,003 m 0.00° 21.50° Asphalt 0 ft / 0 m 0 ft / 0 m
10 148 ft / 45 m 8,010 ft / 2,441 m 80.28° 101.78° Asphalt 0 ft / 0 m 0 ft / 0 m
20 150 ft / 46 m 9,851 ft / 3,003 m 180.00° 201.50° Asphalt 0 ft / 0 m 0 ft / 0 m
28 148 ft / 45 m 8,010 ft / 2,441 m 260.26° 281.76° Asphalt 0 ft / 0 m 0 ft / 0 m

Map

Weather


0- 5 10 15 20 25 30 35+ Temperature / ° C

Clouds and Precipitation
Forecast for 2018-05-21 00:00 UTC. Updated 34 minutes ago

Ground ~20,000 ft ~40,000 ft Winds

METAR

FAKM 202300Z AUTO 26001KT //// // ////// 11/10 Q1020

TAF

Not found

Frequencies

Tower 118.60 MHz TWR
Approach 119.40 MHz BLOEMFONTEIN APP
Warning: Do not use this data for real-world aviation or navigation. No guarantee of current accuracy is given.